Decoded Metar for FEFF (BANGUI in CENTRAL AFRICAN REP.) (IATA:BGF) | Meteo·Mobile Aviation Weather
aviador You're here:

FEFF Decoded Metar

BANGUI in CENTRAL AFRICAN REP.
Report Time2019-02-20 18:00:00
UTC Time2019-02-20 19:12:54
Flight Rules Old
Wind030° at 04 kt
W.Decomp.*RWY 35: 3.1 kt HW 2.5 kt RCW
W.Rank030° ranks 34
Current wind is below 030° avg. (5.4)
Visibility4000 m
Phenomena:Haze
Clouds:N/A
Expected CloudBase > 4,800 ft AGL from Temp-Dew spread
CeilingNone
Temp30°C (ISA +17)
Dew Point18°C (49% RH)
Heat Index30.9°C
QNH1007 hPa
Density Alt3,668 ft
Elevation1,201 ft
Report Wrong Elevation
Raw Report
METAR FEFF 201800Z 03004KT 4000 HZ NSC 30/18 Q1007 NOSIG=

Extra information for FEFF:More info

Metar Taf Metar & Taf Last 4 Metars F.Rules Stats Wind Profile Meteogram Temp Stats Airport Information Weather charts Add Link Nearby VenuesMetar ALERT Operation Metar Decoded Social comments